Time;durP1;ratioP1;P1;durP2;ratioP2;P2;SDS_P1;SDS_P2;PMS_P1;PMS_P2;Temp;Humidity;BMP_temperature;BMP_pressure;BME280_temperature;BME280_humidity;BME280_pressure;Samples;Min_cycle;Max_cycle;Signal;HPM_P1;HPM_P2
2023/08/02 00:02:31;;;;;;;4.20;2.10;;;;;;;19.54;64.93;98182.69;7201389;40;20246;31
2023/08/02 00:07:48;;;;;;;4.30;1.95;;;;;;;19.55;65.46;98164.37;7207587;40;20276;31
2023/08/02 00:13:21;;;;;;;4.40;2.10;;;;;;;19.54;64.89;98163.53;7134531;40;20346;31
2023/08/02 00:18:41;;;;;;;4.87;2.37;;;;;;;19.61;65.28;98145.09;7225524;40;20305;31
2023/08/02 00:24:13;;;;;;;3.97;2.20;;;;;;;19.63;64.61;98133.87;7220513;40;20250;31
2023/08/02 00:29:49;;;;;;;4.90;2.17;;;;;;;19.66;65.49;98130.62;7231998;40;20707;31
2023/08/02 00:35:25;;;;;;;6.85;2.00;;;;;;;19.63;66.00;98136.59;7222467;40;20661;31
2023/08/02 00:41:00;;;;;;;3.80;2.27;;;;;;;19.49;65.70;98146.22;7229977;40;20493;31
2023/08/02 00:51:40;;;;;;;3.90;2.10;;;;;;;19.36;66.66;98136.44;7208365;40;20290;31
2023/08/02 01:02:01;;;;;;;4.23;2.40;;;;;;;19.39;65.94;98127.75;7257320;40;20384;31
2023/08/02 01:12:43;;;;;;;3.33;2.20;;;;;;;19.35;65.69;98119.19;7256686;40;20357;31
2023/08/02 01:18:19;;;;;;;3.83;1.90;;;;;;;19.24;66.09;98122.88;7235373;40;20352;31
2023/08/02 01:23:53;;;;;;;3.85;2.20;;;;;;;19.17;66.74;98116.75;7186867;40;20288;31
2023/08/02 01:29:28;;;;;;;5.00;2.30;;;;;;;19.22;67.40;98107.78;7174511;40;20281;31
2023/08/02 01:35:03;;;;;;;4.90;2.20;;;;;;;19.27;66.72;98094.19;7143012;40;20251;31
2023/08/02 01:40:39;;;;;;;4.25;2.15;;;;;;;19.28;67.25;98084.94;7145492;40;20270;31
2023/08/02 01:46:14;;;;;;;3.73;2.27;;;;;;;19.28;66.10;98076.75;7171453;40;20246;31
2023/08/02 01:51:34;;;;;;;5.50;2.20;;;;;;;19.31;65.51;98073.50;7164255;40;20266;31
2023/08/02 01:57:10;;;;;;;3.70;2.00;;;;;;;19.24;66.26;98072.84;7191933;40;20258;31
2023/08/02 02:02:52;;;;;;;4.30;2.10;;;;;;;19.17;67.42;98051.19;7156999;40;20255;31
2023/08/02 02:13:30;;;;;;;3.40;2.30;;;;;;;19.08;67.51;98044.47;7229447;40;20989;31
2023/08/02 02:18:47;;;;;;;3.70;2.00;;;;;;;19.10;67.32;98036.00;7201089;40;21853;31
2023/08/02 02:24:22;;;;;;;3.63;2.00;;;;;;;19.04;67.19;98034.31;7258297;40;20297;31
2023/08/02 02:29:58;;;;;;;4.30;2.20;;;;;;;18.95;68.34;98028.44;7294709;39;21828;31
2023/08/02 02:35:33;;;;;;;3.97;2.13;;;;;;;18.97;68.53;98009.88;7254095;40;20249;31
2023/08/02 02:41:08;;;;;;;4.45;1.95;;;;;;;19.00;68.32;98000.38;7252102;40;20279;31
2023/08/02 02:46:44;;;;;;;4.20;2.40;;;;;;;18.99;67.91;97980.44;7223199;40;20242;31
2023/08/02 02:52:19;;;;;;;4.63;2.40;;;;;;;18.95;67.64;97971.06;7199241;40;20380;31
2023/08/02 02:57:39;;;;;;;4.00;2.30;;;;;;;18.99;68.31;97965.94;7206193;40;20246;31
2023/08/02 03:03:15;;;;;;;2.83;2.20;;;;;;;18.99;68.62;97961.31;7203359;40;20264;31
2023/08/02 03:08:35;;;;;;;4.10;2.30;;;;;;;18.89;68.66;97953.78;7185539;40;20346;31
2023/08/02 03:13:56;;;;;;;3.33;2.10;;;;;;;18.94;68.50;97947.56;7219273;40;20250;31
2023/08/02 03:19:29;;;;;;;4.40;2.00;;;;;;;18.86;69.15;97935.19;7231782;40;20354;31
2023/08/02 03:24:47;;;;;;;3.83;2.07;;;;;;;18.82;69.60;97939.47;7267199;40;22402;31
2023/08/02 03:30:17;;;;;;;4.53;2.10;;;;;;;18.70;70.95;97935.19;7284848;40;20256;31
2023/08/02 03:35:50;;;;;;;3.50;2.20;;;;;;;18.63;70.75;97908.06;7253576;40;20347;31
2023/08/02 03:46:29;;;;;;;4.03;2.10;;;;;;;18.70;71.81;97907.88;7251447;40;20314;31
2023/08/02 03:57:10;;;;;;;5.20;2.47;;;;;;;18.70;74.24;97881.41;7260779;40;20420;31
2023/08/02 04:02:39;;;;;;;3.70;2.50;;;;;;;18.66;75.04;97885.72;7093535;40;20799;31
2023/08/02 04:07:57;;;;;;;3.13;2.40;;;;;;;18.57;75.91;97881.75;7273062;40;22120;31
2023/08/02 04:13:32;;;;;;;3.73;2.20;;;;;;;18.47;77.84;97866.03;7235413;40;20360;31
2023/08/02 04:18:53;;;;;;;4.93;2.80;;;;;;;18.62;76.67;97870.91;7231394;40;20264;31
2023/08/02 04:24:27;;;;;;;4.30;2.63;;;;;;;18.57;77.57;97859.94;7241592;40;20254;31
2023/08/02 04:30:04;;;;;;;4.17;2.60;;;;;;;18.52;77.35;97848.91;7252788;40;20276;31
2023/08/02 04:35:39;;;;;;;3.43;2.40;;;;;;;18.44;78.31;97844.69;7211040;40;20775;31
2023/08/02 04:41:11;;;;;;;5.45;2.60;;;;;;;18.29;78.93;97849.94;7190855;40;20278;31
2023/08/02 04:46:46;;;;;;;3.90;2.33;;;;;;;18.22;79.67;97842.97;7204338;40;20313;31
2023/08/02 04:52:21;;;;;;;4.67;2.70;;;;;;;18.19;79.57;97830.69;7189547;40;20344;31
2023/08/02 04:57:57;;;;;;;3.55;2.55;;;;;;;18.13;80.11;97830.81;7214852;40;20264;31
2023/08/02 05:03:32;;;;;;;5.20;2.60;;;;;;;18.05;81.03;97837.53;7213435;40;20333;31
2023/08/02 05:09:05;;;;;;;4.30;2.77;;;;;;;18.08;80.77;97817.12;7207799;40;20395;31
2023/08/02 05:14:39;;;;;;;3.93;2.57;;;;;;;18.12;80.08;97815.56;7194904;40;20250;31
2023/08/02 05:20:16;;;;;;;5.73;2.83;;;;;;;17.86;83.11;97820.56;7174264;40;20291;31
2023/08/02 05:25:48;;;;;;;4.90;2.47;;;;;;;17.83;82.59;97810.19;7186132;40;20251;31
2023/08/02 05:31:20;;;;;;;5.27;2.80;;;;;;;17.84;83.40;97811.00;7204087;40;20313;31
2023/08/02 05:36:56;;;;;;;4.63;2.70;;;;;;;17.73;84.41;97804.53;7163415;40;20350;31
2023/08/02 05:42:13;;;;;;;3.70;2.30;;;;;;;17.75;84.25;97802.41;7198063;40;20264;31
2023/08/02 05:47:45;;;;;;;5.93;2.40;;;;;;;17.79;84.30;97798.13;7193439;40;20261;31
2023/08/02 05:53:17;;;;;;;2.80;2.30;;;;;;;17.74;85.28;97783.56;7241485;40;20281;31
2023/08/02 05:58:50;;;;;;;3.37;2.23;;;;;;;17.72;86.04;97778.38;7212555;40;20257;31
2023/08/02 06:04:11;;;;;;;3.37;2.40;;;;;;;17.74;86.46;97759.03;7203611;40;20258;31
2023/08/02 06:09:48;;;;;;;2.70;2.25;;;;;;;17.72;86.81;97739.41;7212326;40;20246;31
2023/08/02 06:15:23;;;;;;;3.60;2.43;;;;;;;17.67;87.32;97721.06;7256153;40;20476;31
2023/08/02 06:20:56;;;;;;;2.60;2.20;;;;;;;17.75;87.28;97717.91;7243546;40;20343;31
2023/08/02 06:26:30;;;;;;;3.87;2.57;;;;;;;17.68;88.63;97706.37;7220112;40;20253;31
2023/08/02 06:32:05;;;;;;;4.20;2.90;;;;;;;17.83;88.08;97705.75;7244665;40;20256;31
2023/08/02 06:37:37;;;;;;;3.17;2.70;;;;;;;17.78;89.24;97692.06;7235247;40;20242;31
2023/08/02 06:43:13;;;;;;;3.77;2.70;;;;;;;17.71;89.59;97685.97;7184534;40;20285;31
2023/08/02 06:48:45;;;;;;;3.80;2.40;;;;;;;17.78;90.60;97676.53;7184315;40;20253;31
2023/08/02 06:54:05;;;;;;;3.95;2.50;;;;;;;17.84;89.57;97667.38;7212365;40;20268;31
2023/08/02 06:59:39;;;;;;;2.90;2.60;;;;;;;17.86;90.22;97646.09;7221114;40;20585;31
2023/08/02 07:05:14;;;;;;;2.70;2.50;;;;;;;17.75;91.36;97632.59;7170898;40;20477;31
2023/08/02 07:15:54;;;;;;;3.20;2.30;;;;;;;17.73;92.13;97597.41;7221137;40;20447;31
2023/08/02 07:26:18;;;;;;;3.30;2.40;;;;;;;17.71;92.91;97613.19;7282249;40;20603;31
2023/08/02 07:36:59;;;;;;;3.30;2.53;;;;;;;17.78;93.46;97591.19;7302227;39;20287;31
2023/08/02 07:42:31;;;;;;;2.63;2.07;;;;;;;17.78;93.90;97596.66;7273179;40;20287;31
2023/08/02 07:47:51;;;;;;;2.90;2.10;;;;;;;17.79;94.79;97585.50;7237767;40;20269;31
2023/08/02 07:53:27;;;;;;;2.13;1.93;;;;;;;17.85;95.24;97570.06;7257264;40;20253;31
2023/08/02 07:59:02;;;;;;;2.30;1.90;;;;;;;17.89;95.51;97539.31;7195277;40;20314;31
2023/08/02 08:04:20;;;;;;;2.47;1.80;;;;;;;17.96;95.74;97558.19;7223762;40;20347;31
2023/08/02 08:09:55;;;;;;;3.77;2.00;;;;;;;17.95;96.41;97542.91;7233528;40;20311;31
2023/08/02 08:15:27;;;;;;;2.30;1.90;;;;;;;17.97;97.25;97549.75;7257285;40;20256;31
2023/08/02 08:20:44;;;;;;;1.90;1.57;;;;;;;18.01;97.31;97534.53;7242998;40;20249;31
2023/08/02 08:26:21;;;;;;;3.13;1.87;;;;;;;18.08;96.84;97534.34;7213655;40;20245;31
2023/08/02 08:31:40;;;;;;;1.83;1.40;;;;;;;18.16;96.89;97524.91;7164589;40;20271;31
2023/08/02 08:37:15;;;;;;;2.13;1.80;;;;;;;18.05;97.71;97509.50;7195233;40;20261;31
2023/08/02 08:42:51;;;;;;;2.07;1.77;;;;;;;18.07;97.85;97499.16;7211926;40;20422;31
2023/08/02 08:48:09;;;;;;;2.10;1.80;;;;;;;18.11;98.33;97494.84;7242161;40;20264;31
2023/08/02 08:53:43;;;;;;;3.00;1.90;;;;;;;18.14;98.45;97492.41;7231205;40;20275;31
2023/08/02 08:59:19;;;;;;;2.30;2.10;;;;;;;18.29;98.39;97481.69;7200207;40;20278;31
2023/08/02 09:09:59;;;;;;;3.03;1.90;;;;;;;18.43;98.77;97476.59;7194905;40;20290;31
2023/08/02 09:20:40;;;;;;;1.93;1.60;;;;;;;18.33;99.32;97473.78;7233945;40;20296;31
2023/08/02 09:26:24;;;;;;;2.70;2.00;;;;;;;18.34;99.76;97472.72;7213216;40;20277;31
2023/08/02 09:31:56;;;;;;;3.13;2.10;;;;;;;18.35;99.86;97468.88;7248495;40;20432;31
2023/08/02 09:37:29;;;;;;;2.50;2.27;;;;;;;18.31;100.00;97460.41;7233025;40;20245;31
2023/08/02 09:42:47;;;;;;;2.23;1.90;;;;;;;18.40;100.00;97458.84;7216724;40;20241;31
2023/08/02 09:48:18;;;;;;;2.30;2.00;;;;;;;18.42;100.00;97448.50;7265891;40;20257;31
2023/08/02 09:53:51;;;;;;;2.30;2.10;;;;;;;18.39;100.00;97446.28;7282966;39;20241;31
2023/08/02 09:59:26;;;;;;;2.67;2.35;;;;;;;18.47;100.00;97440.34;7249111;40;20284;31
2023/08/02 10:10:06;;;;;;;2.47;2.10;;;;;;;18.58;100.00;97437.75;7215166;40;20286;31
2023/08/02 10:15:40;;;;;;;3.07;2.30;;;;;;;18.56;100.00;97424.34;7201113;40;20243;31
2023/08/02 10:21:13;;;;;;;3.03;1.93;;;;;;;18.56;100.00;97418.88;7213858;40;20272;31
2023/08/02 10:26:49;;;;;;;2.33;1.93;;;;;;;18.58;100.00;97403.09;7136678;40;20362;31
2023/08/02 10:32:27;;;;;;;2.30;2.05;;;;;;;18.63;100.00;97403.13;7146773;40;20262;31
2023/08/02 10:38:03;;;;;;;2.97;1.87;;;;;;;18.65;100.00;97395.50;6994807;40;21290;31
2023/08/02 10:43:36;;;;;;;2.23;2.03;;;;;;;18.65;100.00;97406.41;7195276;40;20258;31
2023/08/02 10:49:11;;;;;;;3.07;2.00;;;;;;;18.69;100.00;97384.91;7214427;40;20246;31
2023/08/02 10:54:32;;;;;;;2.40;1.87;;;;;;;18.75;100.00;97397.47;7196013;40;20253;31
2023/08/02 11:00:05;;;;;;;2.20;1.95;;;;;;;18.74;100.00;97393.91;7178395;40;20254;31
2023/08/02 11:05:52;;;;;;;3.83;2.10;;;;;;;18.77;100.00;97390.69;7184007;40;20268;31
2023/08/02 11:11:13;;;;;;;3.73;2.53;;;;;;;18.80;100.00;97379.22;7195710;40;20246;31
2023/08/02 11:16:55;;;;;;;3.07;2.17;;;;;;;18.84;100.00;97374.06;7213386;40;20277;31
2023/08/02 11:22:26;;;;;;;3.90;2.57;;;;;;;18.87;100.00;97368.88;7254923;40;20259;31
2023/08/02 11:28:01;;;;;;;3.17;2.87;;;;;;;18.90;100.00;97365.66;7193474;40;21228;31
2023/08/02 11:33:38;;;;;;;3.53;2.70;;;;;;;18.92;100.00;97366.19;7178621;40;20342;31
2023/08/02 11:38:58;;;;;;;3.13;2.43;;;;;;;18.98;100.00;97374.41;7183360;40;21406;31
2023/08/02 11:44:30;;;;;;;3.50;3.20;;;;;;;18.99;100.00;97365.13;7187860;40;20360;31
2023/08/02 11:55:08;;;;;;;3.60;3.30;;;;;;;19.05;100.00;97342.22;7241553;40;20271;31
2023/08/02 12:00:43;;;;;;;3.20;2.63;;;;;;;19.06;100.00;97349.31;7232632;40;20277;31
2023/08/02 12:06:03;;;;;;;3.20;2.80;;;;;;;19.12;100.00;97332.72;7214476;40;20265;31
2023/08/02 12:11:39;;;;;;;4.15;2.90;;;;;;;19.17;100.00;97335.47;7252616;40;20413;31
2023/08/02 12:22:03;;;;;;;3.20;2.90;;;;;;;19.31;100.00;97314.72;7211617;40;20284;31
2023/08/02 12:32:44;;;;;;;3.77;3.27;;;;;;;19.39;100.00;97313.41;7198050;40;20267;31
2023/08/02 12:38:19;;;;;;;4.17;3.73;;;;;;;19.45;100.00;97308.78;7274138;40;20268;31
2023/08/02 12:43:39;;;;;;;4.47;4.07;;;;;;;19.60;100.00;97304.19;7213309;40;20367;31
2023/08/02 12:49:12;;;;;;;4.90;4.10;;;;;;;19.73;100.00;97283.72;7254186;40;20389;31
2023/08/02 12:54:47;;;;;;;3.97;3.57;;;;;;;19.96;100.00;97280.44;7194177;40;20250;31
2023/08/02 13:00:05;;;;;;;5.90;4.35;;;;;;;20.18;100.00;97270.00;7202008;40;20292;31
2023/08/02 13:05:37;;;;;;;5.85;4.10;;;;;;;20.25;100.00;97254.16;7241924;40;20375;31
2023/08/02 13:11:12;;;;;;;6.27;4.20;;;;;;;20.37;100.00;97255.78;7184755;40;20395;31
2023/08/02 13:16:47;;;;;;;5.80;3.70;;;;;;;20.42;100.00;97248.41;7217161;40;21318;31
2023/08/02 13:22:23;;;;;;;5.87;4.27;;;;;;;20.53;100.00;97236.34;7145559;40;20267;31
2023/08/02 13:27:43;;;;;;;5.00;4.50;;;;;;;20.61;100.00;97240.41;7185293;40;20277;31
2023/08/02 13:33:18;;;;;;;4.80;4.30;;;;;;;20.60;100.00;97241.50;7199472;40;20274;31
2023/08/02 13:38:51;;;;;;;4.70;4.23;;;;;;;20.60;100.00;97225.06;7213596;40;20257;31
2023/08/02 13:44:08;;;;;;;6.50;4.37;;;;;;;20.62;100.00;97215.47;7191732;40;20282;31
2023/08/02 13:49:25;;;;;;;5.00;4.50;;;;;;;20.60;100.00;97214.94;7234977;40;20353;31
2023/08/02 13:54:58;;;;;;;7.00;4.50;;;;;;;20.62;100.00;97203.72;7205189;40;20401;31
2023/08/02 14:00:30;;;;;;;4.63;3.90;;;;;;;20.60;100.00;97198.53;7258569;40;20360;31
2023/08/02 14:11:07;;;;;;;5.90;3.75;;;;;;;20.66;100.00;97193.84;7191657;40;21296;31
2023/08/02 14:16:27;;;;;;;5.00;3.25;;;;;;;20.71;100.00;97190.28;7177867;40;20257;31
2023/08/02 14:27:07;;;;;;;4.00;3.50;;;;;;;20.76;100.00;97165.59;7253053;40;21220;31
2023/08/02 14:32:27;;;;;;;5.12;3.65;;;;;;;20.85;99.85;97169.38;7285136;39;20280;31
2023/08/02 14:38:02;;;;;;;4.05;3.47;;;;;;;20.87;100.00;97170.75;7304171;39;20308;31
2023/08/02 14:43:36;;;;;;;5.00;3.72;;;;;;;20.90;98.71;97183.03;7273602;40;20394;31
2023/08/02 14:48:53;;;;;;;4.40;3.50;;;;;;;21.02;98.96;97176.13;7278122;40;20283;31
2023/08/02 14:54:10;;;;;;;5.55;3.72;;;;;;;21.09;97.77;97170.34;7257921;40;20265;31
2023/08/02 14:59:46;;;;;;;4.85;3.92;;;;;;;21.09;97.22;97171.16;7252098;40;20289;31
2023/08/02 15:05:19;;;;;;;5.15;3.20;;;;;;;21.16;96.38;97143.47;7268968;40;20253;31
2023/08/02 15:10:47;;;;;;;4.40;3.27;;;;;;;21.13;95.36;97141.31;7231602;40;20250;31
2023/08/02 15:16:18;;;;;;;4.32;3.03;;;;;;;21.15;94.63;97122.66;7200080;40;20240;31
2023/08/02 15:21:39;;;;;;;5.23;3.80;;;;;;;21.16;96.34;97127.03;7194461;40;20247;31
2023/08/02 15:27:11;;;;;;;4.90;4.10;;;;;;;21.13;95.91;97177.75;7203652;40;22326;31
2023/08/02 15:32:44;;;;;;;5.50;3.95;;;;;;;21.11;96.76;97129.75;7260117;39;20381;31
2023/08/02 15:38:16;;;;;;;5.40;4.13;;;;;;;21.07;97.34;97115.00;7204177;40;20251;31
2023/08/02 15:43:36;;;;;;;6.97;4.28;;;;;;;21.02;98.03;97183.53;7203366;40;20403;31
2023/08/02 15:49:13;;;;;;;6.57;3.20;;;;;;;20.84;97.95;97179.53;7198701;40;20285;31
2023/08/02 15:54:47;;;;;;;3.40;2.65;;;;;;;20.72;96.30;97192.72;7201351;40;20261;31
2023/08/02 16:00:06;;;;;;;3.03;2.40;;;;;;;20.57;95.36;97171.72;7214108;40;20258;31
2023/08/02 16:05:35;;;;;;;2.22;1.60;;;;;;;20.29;89.74;97207.91;7226960;40;20265;31
2023/08/02 16:11:10;;;;;;;2.80;1.62;;;;;;;20.08;90.36;97217.25;7199477;40;20359;31
2023/08/02 16:16:31;;;;;;;3.03;1.47;;;;;;;19.85;89.64;97188.56;7211574;40;21304;31
2023/08/02 16:22:06;;;;;;;1.73;1.45;;;;;;;19.63;89.15;97175.16;7229654;40;20268;31
2023/08/02 16:27:38;;;;;;;2.47;1.40;;;;;;;19.48;89.42;97166.16;7216384;40;20262;31
2023/08/02 16:32:59;;;;;;;3.00;1.60;;;;;;;19.54;89.48;97154.94;7215040;40;20262;31
2023/08/02 16:38:35;;;;;;;2.10;1.60;;;;;;;19.79;87.63;97140.41;7191856;40;20258;31
2023/08/02 16:44:10;;;;;;;2.45;1.70;;;;;;;20.05;88.43;97152.16;7188164;40;20309;31
2023/08/02 16:49:31;;;;;;;1.83;1.40;;;;;;;20.21;87.74;97153.75;7227258;40;20249;31
2023/08/02 16:55:06;;;;;;;2.50;1.60;;;;;;;20.32;88.01;97179.19;7232364;40;20250;31
2023/08/02 17:00:24;;;;;;;2.75;1.60;;;;;;;20.34;88.92;97202.44;7208320;40;20433;31
2023/08/02 17:05:44;;;;;;;2.23;1.47;;;;;;;20.28;88.76;97192.56;7203223;40;21390;31
2023/08/02 17:11:19;;;;;;;2.27;1.30;;;;;;;20.32;89.90;97198.31;7200863;40;20297;31
2023/08/02 17:16:40;;;;;;;2.77;1.50;;;;;;;20.42;89.31;97170.94;7218266;40;20265;31
2023/08/02 17:22:00;;;;;;;3.05;1.42;;;;;;;20.45;88.17;97193.09;7050849;40;20214;31
2023/08/02 17:27:33;;;;;;;3.70;1.87;;;;;;;20.48;88.43;97194.47;7263049;39;20368;31
2023/08/02 17:33:05;;;;;;;2.30;1.40;;;;;;;20.48;89.35;97189.00;7272413;40;20245;31
2023/08/02 17:38:37;;;;;;;2.85;1.62;;;;;;;20.50;89.26;97195.81;7208569;40;20242;31
2023/08/02 17:44:14;;;;;;;2.58;1.60;;;;;;;20.56;89.76;97194.72;7262065;40;20323;31
2023/08/02 17:49:46;;;;;;;2.65;1.40;;;;;;;20.62;89.36;97204.53;7212289;40;20262;31
2023/08/02 17:55:17;;;;;;;2.28;1.60;;;;;;;20.68;90.99;97197.94;7173519;40;20361;31
2023/08/02 18:00:50;;;;;;;2.75;1.35;;;;;;;20.75;90.55;97205.03;7108847;40;20263;31
2023/08/02 18:06:23;;;;;;;2.83;1.30;;;;;;;20.75;90.01;97208.59;7176086;40;21373;31
2023/08/02 18:11:43;;;;;;;1.87;1.48;;;;;;;20.77;90.95;97211.87;7163750;40;20385;31
2023/08/02 18:17:15;;;;;;;2.00;1.50;;;;;;;20.79;91.61;97219.81;7255212;40;20267;31
2023/08/02 18:27:58;;;;;;;1.40;1.30;;;;;;;20.81;90.80;97247.72;7247379;40;20346;31
2023/08/02 18:33:29;;;;;;;3.17;1.37;;;;;;;20.85;89.75;97265.22;7177693;40;20236;31
2023/08/02 18:39:03;;;;;;;2.45;1.40;;;;;;;20.87;90.26;97279.47;7180142;40;20265;31
2023/08/02 18:44:18;;;;;;;3.42;1.80;;;;;;;20.84;89.66;97283.59;7198912;40;20258;31
2023/08/02 18:49:51;;;;;;;2.95;1.50;;;;;;;20.77;89.07;97295.94;7176931;40;20258;31
2023/08/02 18:55:21;;;;;;;4.53;1.65;;;;;;;20.71;87.96;97292.41;7190373;40;20253;31
2023/08/02 19:00:54;;;;;;;3.30;1.75;;;;;;;20.69;87.07;97319.25;7185222;40;20262;31
2023/08/02 19:11:45;;;;;;;6.30;1.73;;;;;;;20.52;83.46;97337.88;7277855;40;21495;31
2023/08/02 19:17:17;;;;;;;5.87;2.00;;;;;;;20.48;82.30;97353.22;7175082;40;20297;31
2023/08/02 19:22:36;;;;;;;6.70;2.00;;;;;;;20.47;82.11;97355.13;7147598;40;20258;31
2023/08/02 19:28:07;;;;;;;5.53;2.05;;;;;;;20.41;78.93;97369.09;7175175;40;20377;31
2023/08/02 19:33:39;;;;;;;5.40;2.30;;;;;;;20.34;78.30;97394.00;7131166;40;20274;31
2023/08/02 19:38:59;;;;;;;6.53;2.40;;;;;;;20.31;76.42;97391.81;7132960;40;20382;31
2023/08/02 19:44:32;;;;;;;7.90;2.30;;;;;;;20.22;75.51;97396.16;7159164;40;20398;31
2023/08/02 19:50:07;;;;;;;7.43;2.27;;;;;;;20.16;73.18;97430.06;7183466;40;20247;31
2023/08/02 19:55:27;;;;;;;5.97;2.35;;;;;;;20.13;72.92;97411.47;7206665;40;20410;31
2023/08/02 20:01:02;;;;;;;5.17;1.90;;;;;;;20.09;73.81;97418.59;7236636;40;20265;31
2023/08/02 20:06:31;;;;;;;11.73;2.67;;;;;;;20.05;73.19;97431.16;7204892;40;20348;31
2023/08/02 20:11:48;;;;;;;7.53;2.50;;;;;;;20.04;73.28;97424.03;7199600;40;20337;31
2023/08/02 20:17:19;;;;;;;8.30;2.43;;;;;;;19.98;72.53;97425.94;7223630;40;20412;31
2023/08/02 20:22:57;;;;;;;8.00;2.43;;;;;;;19.96;72.22;97436.34;7218250;40;20254;31
2023/08/02 20:28:32;;;;;;;6.30;2.27;;;;;;;19.95;72.33;97437.41;7234615;40;20264;31
2023/08/02 20:34:08;;;;;;;7.77;2.10;;;;;;;19.94;72.42;97437.69;7123676;40;20342;31
2023/08/02 20:39:43;;;;;;;7.43;2.37;;;;;;;19.92;71.93;97437.16;7153681;40;20255;31
2023/08/02 20:45:19;;;;;;;7.40;2.30;;;;;;;19.93;72.62;97466.94;7144223;40;20425;31
2023/08/02 20:50:57;;;;;;;9.67;2.50;;;;;;;20.03;70.21;97464.25;7176974;40;20337;31
2023/08/02 20:56:32;;;;;;;8.45;2.40;;;;;;;20.09;69.52;97476.84;7175212;40;20250;31
2023/08/02 21:02:07;;;;;;;7.90;2.20;;;;;;;20.07;70.85;97489.12;7247613;40;20791;31
2023/08/02 21:07:43;;;;;;;12.77;2.90;;;;;;;20.08;70.85;97475.19;7201828;40;20401;31
2023/08/02 21:13:18;;;;;;;6.97;2.30;;;;;;;20.10;70.50;97472.19;7173245;40;20284;31
2023/08/02 21:23:55;;;;;;;8.60;2.50;;;;;;;20.13;69.47;97493.53;7258236;40;20287;31
2023/08/02 21:29:30;;;;;;;5.90;2.17;;;;;;;20.16;69.22;97471.09;7244834;40;20281;31
2023/08/02 21:40:10;;;;;;;11.00;2.50;;;;;;;20.15;68.02;97488.59;7273994;40;20274;31
2023/08/02 21:50:49;;;;;;;9.17;2.30;;;;;;;20.05;68.39;97499.53;7266790;39;20311;31
2023/08/02 21:56:21;;;;;;;7.70;2.45;;;;;;;20.04;67.27;97503.38;7254032;40;22439;31
2023/08/02 22:01:53;;;;;;;8.87;2.87;;;;;;;20.05;68.21;97513.22;7249518;40;20370;31
2023/08/02 22:07:28;;;;;;;10.80;3.00;;;;;;;20.05;66.69;97537.84;7217757;40;20265;31
2023/08/02 22:13:04;;;;;;;8.43;2.30;;;;;;;20.05;66.16;97524.16;7182560;40;20284;31
2023/08/02 22:18:22;;;;;;;6.07;2.10;;;;;;;20.10;65.43;97526.88;7171713;40;20282;31
2023/08/02 22:23:44;;;;;;;8.65;2.35;;;;;;;20.09;64.51;97536.22;7160190;40;20364;31
2023/08/02 22:34:20;;;;;;;9.80;2.30;;;;;;;20.06;63.24;97553.13;7217582;40;20269;31
2023/08/02 22:44:45;;;;;;;7.73;2.10;;;;;;;20.04;63.06;97539.75;7290511;39;21253;31
2023/08/02 22:50:21;;;;;;;7.57;2.20;;;;;;;19.99;64.14;97560.78;7270150;40;20295;31
2023/08/02 23:01:00;;;;;;;6.30;1.90;;;;;;;19.95;63.77;97549.56;7235765;40;20268;31
2023/08/02 23:06:36;;;;;;;7.20;2.13;;;;;;;19.92;63.61;97557.47;7213355;40;20254;31
2023/08/02 23:12:11;;;;;;;7.57;2.10;;;;;;;19.95;62.66;97559.66;7157674;40;20351;31
2023/08/02 23:17:46;;;;;;;8.13;2.37;;;;;;;19.91;63.73;97588.66;7159166;40;20250;31
2023/08/02 23:23:26;;;;;;;8.10;2.30;;;;;;;19.85;64.27;97574.12;7182303;40;20277;31
2023/08/02 23:29:01;;;;;;;6.10;2.10;;;;;;;19.81;65.21;97581.22;7133162;40;20325;31
2023/08/02 23:34:36;;;;;;;6.95;2.35;;;;;;;19.77;65.42;97583.66;7153184;40;20270;31
2023/08/02 23:40:12;;;;;;;7.70;2.45;;;;;;;19.75;64.23;97598.66;7125237;40;20349;31
2023/08/02 23:45:33;;;;;;;5.17;1.80;;;;;;;19.77;64.23;97597.31;7151129;40;20283;31
2023/08/02 23:50:53;;;;;;;5.60;2.17;;;;;;;19.75;63.80;97598.66;7190295;40;20280;31
2023/08/02 23:56:28;;;;;;;9.73;2.20;;;;;;;19.70;63.69;97623.25;7249389;40;20257;31
